Tiempo atmosférico en la estación meteorológica de Amieva, Panizales, Asturias (360 m.)



Fecha
DESCASC
Temp. máxima en grados centígrados (hora)
DESCASC
Temp. mínima en grados centígrados (hora)
DESCASC
Temp. media en grados centígrados
DESCASC
Racha de viento máxima en m/sg (hora)
DESCASC
Velocidad máxima media en intervalos de 10 minutos(hora)
DESCASC
Precipitaciones diarias en mm
DESCASC
Precipitaciones de 00:00 a 06:00 en mm
DESCASC
Precipitaciones de 06:00 a 12:00 en mm
DESCASC
Precipitaciones de 12:00 a 18:00 en mm
DESCASC
Precipitaciones de 18:00 a 24:00 en mm
DESCASC
22-04-2019 21 (14:30) 5.6 (07:20) 13.3 9.72 (21:50) 5 (17:40) 0 0 0 0 0
21-04-2019 20.2 (15:20) 7.2 (06:10) 13.7 8.33 (17:00) 4.44 (16:10) 0 0 0 0 0
20-04-2019 -- (--) -- (--) -- 9.44 (14:20) 5 (13:40) 0 0 0 0 0
19-04-2019 -- (--) -- (--) -- -- (--) -- (--) -- -- 0 0 0
18-04-2019 -- (--) -- (--) -- -- (--) -- (--) -- 0.6 0 -- --
17-04-2019 24 (14:30) 11 (00:00) 17.5 20.28 (21:20) 8.06 (09:00) 0 0 0 0 0
16-04-2019 18.8 (15:00) 4.9 (00:00) 11.8 8.06 (14:20) 3.61 (13:50) 0.2 0 0.2 0 0
15-04-2019 22.9 (11:50) 9.7 (00:00) 16.3 13.61 (07:50) 7.78 (07:50) 13.2 0 0 3.4 9.8
14-04-2019 22.4 (13:50) 10.9 (00:00) 16.6 8.61 (14:30) 3.06 (13:50) 0 0 0 0 0
13-04-2019 22.7 (16:40) 6.4 (00:00) 14.6 7.78 (16:10) 4.17 (15:30) 0 0 0 0 0
12-04-2019 17.6 (16:30) 2.9 (00:00) 10.3 7.78 (15:10) 3.61 (16:40) 0 0 0 0 0
11-04-2019 11 (15:00) 5.6 (00:00) 8.3 2.5 (12:20) 1.39 (12:20) 0.4 0.2 0 0.2 0
10-04-2019 11.5 (17:40) 6.4 (00:00) 9 7.78 (11:50) 4.17 (09:20) 12.8 0.2 9 3.4 0.2
09-04-2019 16 (17:30) 5.9 (00:00) 11 11.11 (04:20) 5 (04:40) 4.6 0 0 0.2 4.4
08-04-2019 15.8 (13:20) 6.7 (00:00) 11.3 14.72 (02:10) 7.78 (01:40) 0 0 0 0 0
07-04-2019 17.7 (15:50) 4.9 (00:00) 11.3 14.72 (22:40) 8.06 (23:00) 1.6 1 0 0 0.6
06-04-2019 12.7 (15:10) 2.6 (00:00) 7.6 10.83 (10:40) 6.11 (11:30) 8.2 0 0 0.6 7.6
05-04-2019 15.4 (17:10) 5.3 (00:00) 10.3 13.33 (01:50) 6.39 (02:00) 3.8 0 1 0 2.8
04-04-2019 12 (14:00) 1.6 (00:00) 6.8 14.17 (20:50) 6.11 (13:20) 2 2 0 0 0
03-04-2019 7.5 (00:30) 1.4 (00:00) 4.4 7.22 (21:10) 3.06 (15:20) 22.4 0.6 4 8.8 9
02-04-2019 15.2 (13:10) 4.4 (00:00) 9.8 6.94 (17:30) 3.33 (13:10) 0.8 0 0 0 0.8
01-04-2019 19.9 (15:40) 4.6 (00:00) 12.2 8.89 (15:10) 4.17 (15:00) 0 0 0 0 0
31-03-2019 21.7 (15:10) 7.1 (00:00) 14.4 8.89 (14:40) 4.72 (14:30) 0 0 0 0 0
30-03-2019 19.9 (15:20) 6.4 (00:00) 13.1 6.11 (12:50) 3.06 (16:40) 0 0 0 0 0
29-03-2019 19.1 (15:00) 3.7 (00:00) 11.4 7.78 (14:40) 4.17 (14:20) 0 0 0 0 0
28-03-2019 17.2 (14:20) 2.7 (00:00) 10 8.89 (15:10) 3.89 (13:20) 0 0 0 0 0
27-03-2019 17 (14:20) 1.8 (00:00) 9.4 8.61 (13:10) 4.17 (13:40) 0 0 0 0 0

Gráficas

Temp. máximas Temp. mínimas Temp. medias Precipitaciones Rachas de viento máximas Velocidades máximas media en intervalos de 10 minutos

Datos horarios

Fecha y hora oficial Temperatura (ºC) Velocidad del viento (km/h) Dirección del viento Racha (km/h) Dirección de racha Precipitación (mm) Presión (hPa) Tendencia (hPa) Humedad (%)
2019-04-25 23:00:00 7.9 2 Este 11 Sur 0.4 -- -- 89
2019-04-25 22:00:00 9.6 3 Norte 36 Oeste 0.2 -- -- 74
2019-04-25 21:00:00 12.8 4 Sudoeste 26 Sudeste 0 -- -- 42
2019-04-25 20:00:00 13.4 6 Sudeste 40 Este 0 -- -- 44
2019-04-25 19:00:00 13 24 Sudeste 44 Sudeste 0 -- -- 46
2019-04-25 18:00:00 14.3 18 Sudeste 37 Sudeste 0 -- -- 41
2019-04-25 17:00:00 14.1 18 Sudeste 45 Sur 0 -- -- 50
2019-04-25 16:00:00 15.3 24 Sudeste 48 Sur 0 -- -- 46
2019-04-25 15:00:00 15 22 Sur 44 Sudeste 0 -- -- 43
2019-04-25 14:00:00 14.8 17 Sudeste 55 Este 0 -- -- 38
2019-04-25 13:00:00 14.5 21 Sudeste -- -- -- -- -- 42
2019-04-25 12:00:00 13.7 25 Sudeste 45 Sudeste 0 -- -- 42
2019-04-25 11:00:00 12.5 22 Sudeste 41 Este 0 -- -- 46
2019-04-25 10:00:00 10.9 19 Sudeste 35 Sudeste 0 -- -- 51
2019-04-25 09:00:00 -- -- -- -- -- -- -- -- --
2019-04-25 08:00:00 -- -- -- -- -- -- -- -- --
2019-04-25 07:00:00 -- -- -- -- -- -- -- -- --
2019-04-25 06:00:00 -- -- -- -- -- -- -- -- --
2019-04-25 05:00:00 10.4 -- -- -- -- -- -- -- --
2019-04-25 04:00:00 10.5 18 Sudeste 35 Nordeste 0 -- -- 50
2019-04-25 03:00:00 9.9 14 Este 44 Este 0 -- -- 59
2019-04-25 02:00:00 7.3 0 Calma 13 Sudeste 0 -- -- 93
2019-04-25 01:00:00 8.6 -- -- -- -- 0 -- -- --
2019-04-25 00:00:00 9 4 Noroeste 18 Noroeste 0 -- -- 91
2019-04-24 23:00:00 9.3 5 Este 12 Este 0.2 -- -- 91
2019-04-24 22:00:00 10.2 4 Sudeste 10 Sudeste 0 -- -- 80
2019-04-24 21:00:00 11.3 0 Calma 10 Oeste 0 -- -- 73
2019-04-24 20:00:00 13 8 Sur 20 Sur 0 -- -- 62
2019-04-24 19:00:00 15.6 9 Sudeste 47 Sur 0 -- -- 42
2019-04-24 18:00:00 17.1 22 Sur 56 Sudeste 0 -- -- 40
2019-04-24 17:00:00 14.7 17 Sur 45 Sudeste 0 -- -- 57
2019-04-24 16:00:00 16.1 21 Sudeste 53 Sudeste 0 -- -- 45
2019-04-24 15:00:00 13.5 21 Sudeste 57 Este 0 -- -- 55
2019-04-24 14:00:00 12.6 24 Sudeste 60 Sudeste 0 -- -- 55
2019-04-24 13:00:00 12.8 32 Sudeste 62 Sudeste 0 -- -- 50
2019-04-24 12:00:00 10.3 32 Sur 71 Sudeste 0 -- -- 56
2019-04-24 11:00:00 9.4 27 Sudeste 76 Sur 0 -- -- 61
2019-04-24 10:00:00 8.3 25 Sudeste 62 Sur 0 -- -- 66
2019-04-24 09:00:00 8.8 21 Sudeste 40 Sudeste 0 -- -- 62
2019-04-24 08:00:00 8.6 13 Sudeste 48 Sudeste 0 -- -- 62
2019-04-24 07:00:00 8.7 16 Sudeste 41 Sudeste 0 -- -- 61
2019-04-24 06:00:00 8.9 17 Sudeste 48 Sur 0 -- -- 58
2019-04-24 05:00:00 8.3 15 Sudeste 28 Sudeste 0 -- -- 66
2019-04-24 04:00:00 5.7 6 Sudeste 15 Este 0 -- -- 83
2019-04-24 03:00:00 4.5 3 Oeste 6 Oeste 0 -- -- 97
2019-04-24 02:00:00 4.9 2 Nordeste 5 Nordeste 0 -- -- 97
2019-04-24 01:00:00 6 0 Calma 8 Sur 0 -- -- 94
2019-04-24 00:00:00 6.2 2 Este 6 Norte 0 -- -- 94
2019-04-23 23:00:00 7.2 0 Calma 4 Norte 0 -- -- 96
2019-04-23 22:00:00 6.2 0 Calma 4 Norte 0 -- -- 95
2019-04-23 21:00:00 8 0 Calma 8 Sur 0 -- -- 90
2019-04-23 20:00:00 7.9 0 Calma 15 Nordeste 0.8 -- -- 88
2019-04-23 19:00:00 8.4 7 Norte 20 Oeste 1.8 -- -- 79
2019-04-23 18:00:00 11.2 9 Nordeste 26 Nordeste 0 -- -- 82
2019-04-23 17:00:00 14.4 5 Norte 28 Sudoeste 0 -- -- 64
2019-04-23 16:00:00 15.9 16 Sur 35 Sur 0 -- -- 40
2019-04-23 15:00:00 17.4 19 Sur 38 Sur 0 -- -- 34
2019-04-23 14:00:00 16.6 18 Sudeste 43 Este 0 -- -- 40
2019-04-23 13:00:00 15.4 12 Sur 21 Sur 0 -- -- 57
2019-04-23 12:00:00 12.5 6 Sudoeste 19 Oeste 0 -- -- 82
2019-04-23 11:00:00 11.8 7 Sur 15 Sudoeste 0 -- -- 81
2019-04-23 10:00:00 11.3 4 Oeste 11 Sudoeste 0 -- -- 86
2019-04-23 09:00:00 10.8 0 Calma 6 Este 0.2 -- -- 94
2019-04-23 08:00:00 10.5 5 Norte 15 Oeste 0 -- -- 91
2019-04-23 07:00:00 11.9 2 Noroeste 12 Este 0 -- -- 75
2019-04-23 06:00:00 13.3 9 Este 24 Este 0 -- -- 62
2019-04-23 05:00:00 13.5 11 Sudeste 26 Este 0 -- -- 58
2019-04-23 04:00:00 13.9 14 Sudeste 27 Este 0 -- -- 58
2019-04-23 03:00:00 14.6 17 Sur 30 Sur 0 -- -- 57
2019-04-23 02:00:00 13.1 2 Nordeste 9 Norte 0 -- -- 70
2019-04-23 01:00:00 14.2 4 Noroeste 11 Nordeste 0 -- -- 65
2019-04-23 00:00:00 17 5 Sudeste 28 Sur 0 -- -- 50
2019-04-22 23:00:00 17.9 12 Sudeste 32 Sur 0 -- -- 46
2019-04-22 22:00:00 18.2 18 Sudeste 35 Este 0 -- -- 46
2019-04-22 21:00:00 18.1 13 Sudeste 33 Sudeste 0 -- -- 47
2019-04-22 20:00:00 18.6 16 Sur 34 Sur 0 -- -- 45
2019-04-22 19:00:00 19.7 11 Sudeste 33 Sur 0 -- -- 43
2019-04-22 18:00:00 19.6 18 Sudeste 35 Sur 0 -- -- 42
2019-04-22 17:00:00 19.2 14 Sudeste 30 Sudeste 0 -- -- 42
2019-04-22 16:00:00 19.1 10 Sudeste 27 Sudeste 0 -- -- 41
2019-04-22 15:00:00 19.6 13 Sudeste 31 Sur 0 -- -- 40
2019-04-22 14:00:00 20.8 15 Sudeste 31 Sur 0 -- -- 39
2019-04-22 13:00:00 19.4 17 Sur 32 Sur 0 -- -- 42
2019-04-22 12:00:00 17.9 15 Sudeste 32 Sudeste 0 -- -- 46
2019-04-22 11:00:00 16.1 14 Sudeste 30 Este 0 -- -- 51
2019-04-22 10:00:00 11.7 9 Sudeste 25 Este 0 -- -- 75
2019-04-22 09:00:00 7.1 0 Calma 4 Norte 0 -- -- 95
2019-04-22 08:00:00 6 3 Nordeste 5 Sur 0 -- -- 96
2019-04-22 07:00:00 5.8 0 Calma 3 Este 0 -- -- 96
2019-04-22 06:00:00 6.1 0 Calma 4 Este 0 -- -- 96
2019-04-22 05:00:00 6.6 0 Calma 3 Sur 0 -- -- 95
2019-04-22 04:00:00 7.1 0 Calma 3 Sudeste 0 -- -- 96
2019-04-22 03:00:00 7.4 0 Calma 4 Norte 0 -- -- 95
2019-04-22 02:00:00 8.3 0 Calma 4 Nordeste 0 -- -- 93
2019-04-22 01:00:00 8.8 0 Calma 4 Nordeste 0 -- -- 90
2019-04-22 00:00:00 9.8 3 Nordeste 11 Norte 0 -- -- 87
2019-04-21 23:00:00 11.1 2 Nordeste 13 Norte 0 -- -- 82
2019-04-21 22:00:00 12.6 7 Norte 25 Noroeste 0 -- -- 76
2019-04-21 21:00:00 14.5 8 Oeste 22 Oeste 0 -- -- 62
2019-04-21 20:00:00 16.4 8 Noroeste 26 Oeste 0 -- -- 57
2019-04-21 19:00:00 17.4 10 Oeste 23 Oeste 0 -- -- 53
2019-04-21 18:00:00 18.9 14 Sudoeste 29 Oeste 0 -- -- 52
2019-04-21 17:00:00 19.6 14 Sudoeste 30 Sudoeste 0 -- -- 52
2019-04-21 16:00:00 20 14 Sudoeste 25 Oeste 0 -- -- 48
2019-04-21 15:00:00 19.5 15 Sudoeste 28 Oeste 0 -- -- 47
2019-04-21 14:00:00 19 14 Sudoeste 25 Oeste 0 -- -- 48
2019-04-21 13:00:00 15.6 8 Noroeste 18 Oeste 0 -- -- 53
2019-04-21 12:00:00 14.7 6 Sudoeste 13 Oeste 0 -- -- 67
2019-04-21 11:00:00 13.5 4 Oeste 8 Sudoeste 0 -- -- 71
2019-04-21 10:00:00 10.8 2 Norte 10 Noroeste 0 -- -- 79
2019-04-21 09:00:00 9.4 2 Sudoeste 6 Sudeste 0 -- -- 82
2019-04-21 08:00:00 8.5 0 Calma 11 Sudeste 0 -- -- 85
2019-04-21 07:00:00 7.2 0 Calma 6 Norte 0 -- -- 87
2019-04-21 06:00:00 7.4 2 Noroeste 4 Noroeste 0 -- -- 86
2019-04-21 05:00:00 7.6 0 Calma 4 Norte 0 -- -- 86
2019-04-21 04:00:00 7.6 2 Noroeste 6 Noroeste 0 -- -- 86
2019-04-21 03:00:00 8.3 2 Oeste 5 Norte 0 -- -- 85
2019-04-21 02:00:00 8.5 0 Calma 6 Norte 0 -- -- 83
2019-04-21 01:00:00 8.8 2 Oeste 4 Norte 0 -- -- 83
2019-04-21 00:00:00 9.5 0 Calma 4 Noroeste 0 -- -- 79
2019-04-20 23:00:00 10.7 2 Noroeste 6 Oeste 0 -- -- 72
2019-04-20 22:00:00 12.8 4 Norte 14 Norte 0 -- -- 64
2019-04-20 21:00:00 15.5 5 Noroeste 19 Oeste 0 -- -- 53
2019-04-20 20:00:00 18.1 6 Oeste 22 Sudoeste 0 -- -- 48
2019-04-20 19:00:00 19 8 Oeste 24 Sudoeste 0 -- -- 48
2019-04-20 18:00:00 21.3 10 Oeste 33 Oeste 0 -- -- 44
2019-04-20 17:00:00 22.7 13 Sudoeste 32 Oeste 0 -- -- 45
2019-04-20 16:00:00 22.9 16 Oeste 31 Oeste 0 -- -- 46
2019-04-20 15:00:00 22.6 17 Sudoeste 34 Sudoeste 0 -- -- 46
2019-04-20 14:00:00 20.9 17 Sudoeste 33 Oeste 0 -- -- 53
2019-04-20 13:00:00 19.3 10 Sudoeste 24 Oeste 0 -- -- 58
2019-04-20 12:00:00 17.3 7 Sudoeste 18 Oeste 0 -- -- 66
2019-04-20 11:00:00 15 3 Sudoeste 6 Sudoeste -- -- -- 77
2019-04-20 10:00:00 12 2 Noroeste 7 Noroeste -- -- -- 89
2019-04-20 09:00:00 9.1 2 Oeste 5 Sudoeste 0 -- -- 96
2019-04-20 08:00:00 8.1 0 Calma 6 Sudeste 0 -- -- 98
2019-04-20 07:00:00 8.6 0 Calma 4 Sudoeste 0 -- -- 98
2019-04-20 06:00:00 9 0 Calma 6 Oeste 0 -- -- 95
2019-04-20 05:00:00 8.8 3 Norte 5 Norte 0 -- -- 97
2019-04-20 04:00:00 9.2 2 Norte 6 Norte 0 -- -- 96
2019-04-20 03:00:00 10.1 2 Noroeste 5 Norte 0 -- -- 95
2019-04-20 02:00:00 9.9 2 Norte 5 Norte 0 -- -- 95
2019-04-20 01:00:00 10.2 2 Noroeste 5 Noroeste 0 -- -- 92
2019-04-20 00:00:00 10.8 0 Calma 5 Norte 0 -- -- 90
2019-04-19 23:00:00 11.2 0 Calma 6 Nordeste 0 -- -- 88
2019-04-19 22:00:00 12.1 -- -- -- -- 0 -- -- --
2019-04-19 21:00:00 13.9 0 Calma 8 Oeste 0 -- -- 80
2019-04-19 20:00:00 17.5 0 Calma 10 Sudoeste 0 -- -- 70
2019-04-19 19:00:00 18.3 6 Sudoeste 15 Sur 0 -- -- 68
2019-04-19 18:00:00 15.9 -- -- -- -- 0 -- -- 84
2019-04-19 17:00:00 15.6 7 Sudoeste 19 Oeste 0 -- -- 82
2019-04-19 16:00:00 16.1 5 Sudoeste 17 Sudoeste 0 -- -- 80
2019-04-19 15:00:00 15.4 9 Sudoeste 15 Oeste 0 -- -- 81
2019-04-19 14:00:00 15.3 8 Sudoeste 15 Sudoeste 0 -- -- 84
2019-04-19 13:00:00 -- -- -- -- -- -- -- -- --
2019-04-19 12:00:00 -- -- -- -- -- -- -- -- --
2019-04-19 11:00:00 -- -- -- -- -- -- -- -- --
2019-04-19 10:00:00 -- -- -- -- -- -- -- -- --
2019-04-19 09:00:00 -- -- -- -- -- -- -- -- --
2019-04-19 08:00:00 -- -- -- -- -- -- -- -- --
2019-04-19 07:00:00 -- -- -- -- -- -- -- -- --
2019-04-19 06:00:00 -- -- -- -- -- -- -- -- --
2019-04-19 05:00:00 -- -- -- -- -- -- -- -- --
2019-04-19 04:00:00 -- -- -- -- -- -- -- -- --
2019-04-19 03:00:00 -- -- -- -- -- -- -- -- --
2019-04-19 02:00:00 -- -- -- -- -- -- -- -- --
2019-04-19 01:00:00 -- -- -- -- -- -- -- -- --
2019-04-19 00:00:00 -- -- -- -- -- -- -- -- --
2019-04-18 23:00:00 -- -- -- -- -- -- -- -- --
2019-04-18 22:00:00 -- -- -- -- -- -- -- -- --
2019-04-18 21:00:00 -- -- -- -- -- -- -- -- --
2019-04-18 20:00:00 -- -- -- -- -- -- -- -- --
2019-04-18 19:00:00 -- -- -- -- -- -- -- -- --
2019-04-18 18:00:00 -- -- -- -- -- -- -- -- --
2019-04-18 17:00:00 -- -- -- -- -- -- -- -- --
2019-04-18 16:00:00 -- -- -- -- -- -- -- -- --
2019-04-18 15:00:00 -- -- -- -- -- -- -- -- --
2019-04-18 14:00:00 -- -- -- -- -- -- -- -- --
2019-04-18 13:00:00 -- -- -- -- -- -- -- -- --
2019-04-18 12:00:00 -- -- -- -- -- -- -- -- --
2019-04-18 11:00:00 -- -- -- -- -- -- -- -- --
2019-04-18 10:00:00 -- -- -- -- -- -- -- -- --
2019-04-18 09:00:00 -- -- -- -- -- -- -- -- --
2019-04-18 08:00:00 -- -- -- -- -- -- -- -- --
2019-04-18 07:00:00 -- -- -- -- -- -- -- -- --
2019-04-18 06:00:00 -- -- -- -- -- -- -- -- --
2019-04-18 05:00:00 -- -- -- -- -- -- -- -- --
2019-04-18 04:00:00 -- -- -- -- -- -- -- -- --
2019-04-18 03:00:00 -- -- -- -- -- -- -- -- --
2019-04-18 02:00:00 -- -- -- -- -- -- -- -- --
2019-04-18 01:00:00 -- -- -- -- -- -- -- -- --
2019-04-18 00:00:00 -- -- -- -- -- -- -- -- --
2019-04-17 23:00:00 -- -- -- -- -- -- -- -- --
2019-04-17 22:00:00 21.2 23 Sudeste 73 Sudeste 0 -- -- 39
2019-04-17 21:00:00 21 14 Sudeste 37 Sudeste 0 -- -- 42
2019-04-17 20:00:00 21.9 12 Sur 42 Este 0 -- -- 39
2019-04-17 19:00:00 22.6 15 Sudeste 37 Sudeste 0 -- -- 35
2019-04-17 18:00:00 22.8 18 Sudeste 38 Este 0 -- -- 33
2019-04-17 17:00:00 22.1 17 Sudeste 29 Este 0 -- -- 37
2019-04-17 16:00:00 22.2 14 Sudeste 34 Sur 0 -- -- 40
2019-04-17 15:00:00 23.6 13 Sur 36 Sudeste 0 -- -- 35
2019-04-17 14:00:00 23.9 15 Sudeste 43 Sur 0 -- -- 39
2019-04-17 13:00:00 22.8 14 Sudeste 39 Sur 0 -- -- 41
2019-04-17 12:00:00 21.2 21 Sudeste 41 Sudeste 0 -- -- 39
2019-04-17 11:00:00 19.3 21 Sudeste 44 Sudeste 0 -- -- 43
2019-04-17 10:00:00 18.6 15 Sudeste 57 Sur 0 -- -- 45
2019-04-17 09:00:00 18.3 29 Sur 60 Sur 0 -- -- 44
2019-04-17 08:00:00 18.3 16 Sudeste 51 Sur 0 -- -- 43
2019-04-17 07:00:00 19.3 18 Sudeste 50 Sur 0 -- -- 37
2019-04-17 06:00:00 18.8 17 Sudeste 38 Sur 0 -- -- 41
2019-04-17 05:00:00 13.1 9 Sudeste 25 Sudeste 0 -- -- 75
2019-04-17 04:00:00 11 2 Norte 15 Norte 0 -- -- 90
2019-04-17 03:00:00 11.4 5 Nordeste 17 Oeste 0 -- -- 91
2019-04-17 02:00:00 12 5 Oeste 12 Nordeste 0 -- -- 87
2019-04-17 01:00:00 11.4 0 Calma 5 Norte 0 -- -- 92
2019-04-17 00:00:00 11.4 2 Este 5 Este 0 -- -- 92
2019-04-16 23:00:00 11.4 0 Calma 3 Este 0 -- -- 91
2019-04-16 22:00:00 11.8 0 Calma 4 Este 0 -- -- 89
2019-04-16 21:00:00 12.8 2 Este 4 Este 0 -- -- 85
2019-04-16 20:00:00 15.3 3 Oeste 15 Sudoeste 0 -- -- 76
2019-04-16 19:00:00 16.1 6 Noroeste 17 Noroeste 0 -- -- 71
2019-04-16 18:00:00 16.7 7 Oeste 18 Oeste 0 -- -- 69
2019-04-16 17:00:00 17.1 8 Oeste 21 Sudoeste 0 -- -- 66
2019-04-16 16:00:00 18.2 8 Sudoeste 28 Sudoeste 0 -- -- 64
2019-04-16 15:00:00 18.8 8 Sudoeste 29 Oeste 0 -- -- 62
2019-04-16 14:00:00 17.8 12 Sudoeste 23 Oeste 0 -- -- 65
2019-04-16 13:00:00 16.1 9 Oeste 21 Sudoeste 0 -- -- 73
2019-04-16 12:00:00 13.7 6 Sudoeste 13 Oeste 0 -- -- 85
2019-04-16 11:00:00 11.2 4 Sudoeste 9 Sur 0 -- -- 85
2019-04-16 10:00:00 8.4 0 Calma 4 Noroeste 0.2 -- -- 96
2019-04-16 09:00:00 5.2 0 Calma 4 Noroeste 0 -- -- 100
2019-04-16 08:00:00 4.9 0 Calma 3 Oeste 0 -- -- 100
2019-04-16 07:00:00 5.1 0 Calma 4 Oeste 0 -- -- 99
2019-04-16 06:00:00 5.8 0 Calma 4 Noroeste 0 -- -- 99
2019-04-16 05:00:00 6.5 0 Calma 4 Noroeste 0 -- -- 100
2019-04-16 04:00:00 7.7 0 Calma 4 Norte 0 -- -- 100
2019-04-16 03:00:00 7.4 2 Norte 4 Norte 0 -- -- 100
2019-04-16 02:00:00 8.3 0 Calma 7 Noroeste 0 -- -- 97
2019-04-16 01:00:00 9 3 Norte 7 Sudoeste 0 -- -- 99
2019-04-16 00:00:00 9.7 0 Calma 4 Oeste 0.2 -- -- 98
2019-04-15 23:00:00 9.8 0 Calma 4 Oeste 2 -- -- 98
2019-04-15 22:00:00 10 0 Calma 14 Noroeste 3.8 -- -- 98
2019-04-15 21:00:00 10.4 5 Norte 15 Norte 2.2 -- -- 93
2019-04-15 20:00:00 11.4 3 Sudoeste 7 Oeste 0.6 -- -- 96
2019-04-15 19:00:00 11.8 2 Oeste 8 Oeste 1 -- -- 98
2019-04-15 18:00:00 12 4 Oeste 22 Noroeste 1.4 -- -- 93
2019-04-15 17:00:00 13 8 Noroeste 22 Oeste 0.2 -- -- 87
2019-04-15 16:00:00 14.2 10 Oeste 25 Norte 0 -- -- 88
2019-04-15 15:00:00 16.9 10 Noroeste 23 Oeste 0 -- -- 83
2019-04-15 14:00:00 16.2 4 Sudoeste 22 Oeste 1 -- -- 88
2019-04-15 13:00:00 18.4 4 Norte 24 Noroeste 0.8 -- -- 76
2019-04-15 12:00:00 21.7 18 Sudeste 38 Este 0 -- -- 52
2019-04-15 11:00:00 21.2 19 Sudeste 45 Este 0 -- -- 51
2019-04-15 10:00:00 20.6 14 Este 29 Sudeste 0 -- -- 53
2019-04-15 09:00:00 19.9 17 Sudeste 39 Sur 0 -- -- 56
2019-04-15 08:00:00 19.7 23 Sur 49 Sudeste 0 -- -- 57
2019-04-15 07:00:00 19.5 16 Sudeste 39 Sudeste 0 -- -- 56
2019-04-15 06:00:00 17.8 7 Sudeste 18 Sur 0 -- -- 62
2019-04-15 05:00:00 13.4 5 Norte 12 Norte 0 -- -- 87
2019-04-15 04:00:00 12.9 3 Este 8 Noroeste 0 -- -- 91
2019-04-15 03:00:00 12 0 Calma 6 Nordeste 0 -- -- 94
2019-04-15 02:00:00 11.8 0 Calma 4 Este 0 -- -- 94
2019-04-15 01:00:00 12.2 0 Calma 4 Este 0 -- -- 92
2019-04-15 00:00:00 13 0 Calma 5 Este 0 -- -- 89
2019-04-14 23:00:00 13.7 0 Calma 4 Este 0 -- -- 86
2019-04-14 22:00:00 14.8 0 Calma 5 Este 0 -- -- 82
2019-04-14 21:00:00 16.9 2 Nordeste 13 Noroeste 0 -- -- 74
2019-04-14 20:00:00 18.9 7 Noroeste 19 Oeste 0 -- -- 66
2019-04-14 19:00:00 20.3 8 Oeste 17 Oeste 0 -- -- 63
2019-04-14 18:00:00 20.4 8 Oeste 26 Sudoeste 0 -- -- 61
2019-04-14 17:00:00 21.3 9 Noroeste 21 Oeste 0 -- -- 60
2019-04-14 16:00:00 22.4 9 Oeste 28 Oeste 0 -- -- 56
2019-04-14 15:00:00 21.8 6 Oeste 31 Oeste 0 -- -- 56
2019-04-14 14:00:00 22.3 7 Oeste 24 Oeste 0 -- -- 53
2019-04-14 13:00:00 20.8 5 Este 18 Oeste 0 -- -- 57
2019-04-14 12:00:00 19.6 5 Sur 11 Sudoeste 0 -- -- 57
2019-04-14 11:00:00 17.1 4 Sudoeste 9 Sur 0 -- -- 63
2019-04-14 10:00:00 14.4 2 Sur 9 Este 0 -- -- 68
2019-04-14 09:00:00 13.3 0 Calma 8 Nordeste 0 -- -- 72
2019-04-14 08:00:00 12.5 3 Oeste 10 Sur 0 -- -- 74
2019-04-14 07:00:00 11.6 0 Calma 6 Sur 0 -- -- 77
2019-04-14 06:00:00 11.9 0 Calma 7 Norte 0 -- -- 76
2019-04-14 05:00:00 12.9 2 Noroeste 5 Sudoeste 0 -- -- 72
2019-04-14 04:00:00 12.9 0 Calma 4 Norte 0 -- -- 72
2019-04-14 03:00:00 12.9 0 Calma 3 Norte 0 -- -- 72
2019-04-14 02:00:00 12.8 0 Calma 4 Oeste 0 -- -- 73
2019-04-14 01:00:00 13.1 0 Calma 4 Norte 0 -- -- 69
2019-04-14 00:00:00 13.6 0 Calma 3 Norte 0 -- -- 69
2019-04-13 23:00:00 14 0 Calma 3 Norte 0 -- -- 66
2019-04-13 22:00:00 14.6 0 Calma 4 Oeste 0 -- -- 65
2019-04-13 21:00:00 15.6 0 Calma 5 Noroeste 0 -- -- 59
2019-04-13 20:00:00 17.4 4 Oeste 13 Oeste 0 -- -- 48
2019-04-13 19:00:00 18.1 8 Oeste 16 Oeste 0 -- -- 43
2019-04-13 18:00:00 20.6 6 Noroeste 23 Oeste 0 -- -- 41
2019-04-13 17:00:00 22.2 6 Noroeste 28 Oeste 0 -- -- 41
2019-04-13 16:00:00 22.3 11 Sudoeste 27 Oeste 0 -- -- 41
2019-04-13 15:00:00 21.5 9 Oeste 23 Oeste 0 -- -- 41
2019-04-13 14:00:00 20.5 8 Noroeste 23 Oeste 0 -- -- 43
2019-04-13 13:00:00 19.9 9 Sudoeste 16 Oeste 0 -- -- 52
2019-04-13 12:00:00 16.7 6 Oeste 13 Oeste 0 -- -- 56
2019-04-13 11:00:00 14.4 3 Sudoeste 5 Sudoeste 0 -- -- 59
2019-04-13 10:00:00 11.3 0 Calma 7 Norte 0 -- -- 65
2019-04-13 09:00:00 8 0 Calma 4 Nordeste 0 -- -- 77
2019-04-13 08:00:00 6.6 0 Calma 5 Este 0 -- -- 84
2019-04-13 07:00:00 6.7 0 Calma 4 Sur 0 -- -- 86
2019-04-13 06:00:00 6.7 0 Calma 3 Sur 0 -- -- 89
2019-04-13 05:00:00 6.6 0 Calma 3 Sur 0 -- -- 91
2019-04-13 04:00:00 7 0 Calma 3 Sudoeste 0 -- -- 92
2019-04-13 03:00:00 7.7 2 Sur 5 Sur 0 -- -- 92
2019-04-13 02:00:00 7.5 0 Calma 5 Sur 0 -- -- 95
2019-04-13 01:00:00 7.8 0 Calma 5 Sudeste 0 -- -- 95
2019-04-13 00:00:00 7.8 0 Calma 4 Sudoeste 0 -- -- 95
2019-04-12 23:00:00 8.2 0 Calma 3 Sudoeste 0 -- -- 93
2019-04-12 22:00:00 9.3 0 Calma 5 Sudeste 0 -- -- 89
2019-04-12 21:00:00 11.6 0 Calma 10 Oeste 0 -- -- 80
2019-04-12 20:00:00 15.3 6 Oeste 18 Oeste 0 -- -- 67
2019-04-12 19:00:00 16.2 6 Noroeste 21 Noroeste 0 -- -- 65
2019-04-12 18:00:00 17.2 8 Oeste 21 Sudoeste 0 -- -- 58
2019-04-12 17:00:00 17 8 Oeste 26 Oeste 0 -- -- 63
2019-04-12 16:00:00 17.1 8 Norte 28 Sudoeste 0 -- -- 59
2019-04-12 15:00:00 17.3 7 Sur 26 Oeste 0 -- -- 55
2019-04-12 14:00:00 15.9 12 Sudoeste 21 Oeste 0 -- -- 55
2019-04-12 13:00:00 14.2 9 Oeste 21 Oeste 0 -- -- 64
2019-04-12 12:00:00 12.3 6 Sudoeste 13 Sudoeste 0 -- -- 71
2019-04-12 11:00:00 9.7 3 Sur 7 Sudeste 0 -- -- 71
2019-04-12 10:00:00 6.6 0 Calma 6 Sudeste 0 -- -- 83
2019-04-12 09:00:00 3.4 0 Calma 5 Sudeste 0 -- -- 96
2019-04-12 08:00:00 3.2 2 Sudoeste 5 Sur 0 -- -- 95
2019-04-12 07:00:00 3.5 0 Calma 5 Este 0 -- -- 95
2019-04-12 06:00:00 4.2 0 Calma 6 Sur 0 -- -- 95
2019-04-12 05:00:00 4.6 0 Calma 6 Este 0 -- -- 96
2019-04-12 04:00:00 5 2 Norte 4 Norte 0 -- -- 97
2019-04-12 03:00:00 6.8 0 Calma 5 Nordeste 0 -- -- 98
2019-04-12 02:00:00 6.5 0 Calma 3 Nordeste 0 -- -- 100
2019-04-12 01:00:00 6.4 0 Calma 5 Nordeste 0 -- -- 96
2019-04-12 00:00:00 8.1 2 Nordeste 5 Norte 0 -- -- 95
2019-04-11 23:00:00 8.1 3 Oeste 4 Oeste 0 -- -- 94
2019-04-11 22:00:00 8.7 0 Calma 5 Oeste 0 -- -- 92
2019-04-11 21:00:00 9.6 0 Calma 4 Sudeste 0 -- -- 86
2019-04-11 20:00:00 10.1 0 Calma 3 Sur 0 -- -- 82
2019-04-11 19:00:00 10.2 0 Calma 7 Sur 0 -- -- 84
2019-04-11 18:00:00 10.1 0 Calma 5 Sudoeste 0 -- -- 87
2019-04-11 17:00:00 10.2 2 Sudoeste 6 Sudoeste 0.2 -- -- 87
2019-04-11 16:00:00 10.5 0 Calma 6 Sudoeste 0 -- -- 82
2019-04-11 15:00:00 11 3 Sudoeste 6 Oeste 0 -- -- 73
2019-04-11 14:00:00 10.3 0 Calma 6 Sudoeste 0 -- -- 78
2019-04-11 13:00:00 9.7 2 Oeste 9 Oeste 0 -- -- 86
2019-04-11 12:00:00 10 0 Calma 8 Oeste 0 -- -- 84
2019-04-11 11:00:00 8.4 0 Calma 4 Noroeste 0 -- -- 89
2019-04-11 10:00:00 7.2 0 Calma 4 Noroeste 0 -- -- 91
2019-04-11 09:00:00 6.6 0 Calma 5 Norte 0 -- -- 95
2019-04-11 08:00:00 5.8 3 Noroeste 6 Noroeste 0 -- -- 96
2019-04-11 07:00:00 5.9 0 Calma 3 Noroeste 0 -- -- 96
2019-04-11 06:00:00 6 0 Calma 4 Noroeste 0.2 -- -- 95
2019-04-11 05:00:00 6.2 0 Calma 7 Noroeste 0 -- -- 97
2019-04-11 04:00:00 5.9 0 Calma 3 Norte 0 -- -- 100
2019-04-11 03:00:00 5.6 0 Calma 6 Norte 0 -- -- 98
2019-04-11 02:00:00 6.4 0 Calma 4 Noroeste 0 -- -- 97
2019-04-11 01:00:00 7.5 0 Calma 5 Norte 0 -- -- 95
2019-04-11 00:00:00 8 4 Norte 5 Norte 0.2 -- -- 93
2019-04-10 23:00:00 8.4 3 Norte 7 Este 0 -- -- 89
2019-04-10 22:00:00 9 2 Noroeste 9 Norte 0 -- -- 83
2019-04-10 21:00:00 9.4 3 Noroeste 10 Noroeste 0 -- -- 84
2019-04-10 20:00:00 9.9 3 Oeste 13 Oeste 0 -- -- 80
2019-04-10 19:00:00 10.6 4 Oeste 19 Oeste 0 -- -- 82
2019-04-10 18:00:00 11 6 Oeste 17 Oeste 0 -- -- 80
2019-04-10 17:00:00 11 4 Sudoeste 10 Sudoeste 0 -- -- 92
2019-04-10 16:00:00 9.4 3 Sur 6 Sur 0 -- -- 91
2019-04-10 15:00:00 8.8 2 Sur 7 Sur 0.4 -- -- 94
2019-04-10 14:00:00 7.8 5 Sur 19 Sudeste 1.2 -- -- 91
2019-04-10 13:00:00 7.6 10 Sudeste 23 Sudeste 1.8 -- -- 89
2019-04-10 12:00:00 6.9 11 Sudeste 28 Sudeste 2.4 -- -- 90
2019-04-10 11:00:00 6.7 12 Sudeste 23 Sur 1.6 -- -- 90
2019-04-10 10:00:00 6.9 4 Sudoeste 25 Sudeste 1.2 -- -- 91
2019-04-10 09:00:00 6.9 3 Sur 23 Sur 1 -- -- 90
2019-04-10 08:00:00 7 8 Sudeste 21 Sudeste 1.8 -- -- 85
2019-04-10 07:00:00 6.8 3 Sudoeste 16 Sur 1 -- -- 92
2019-04-10 06:00:00 6.9 4 Sur 17 Sudeste 0 -- -- 89
2019-04-10 05:00:00 6.8 5 Este 12 Sur 0.2 -- -- 93
2019-04-10 04:00:00 6.7 0 Calma 13 Sur 0 -- -- 92
2019-04-10 03:00:00 6.4 0 Calma 5 Sudeste 0 -- -- 93
2019-04-10 02:00:00 7.6 7 Sur 23 Sudeste 0 -- -- 87
2019-04-10 01:00:00 8.4 10 Sudeste 20 Sudeste 0 -- -- 86
2019-04-10 00:00:00 7.9 4 Este 14 Sudeste 0.8 -- -- 93
2019-04-09 23:00:00 8.3 2 Oeste 14 Este 1.6 -- -- 94
2019-04-09 22:00:00 8.8 5 Noroeste 13 Sudeste 0 -- -- 90
2019-04-09 21:00:00 9.3 5 Sudeste 21 Oeste 1.8 -- -- 89
2019-04-09 20:00:00 12 4 Noroeste 16 Noroeste 0.2 -- -- 72
2019-04-09 19:00:00 13.8 3 Norte 16 Noroeste 0 -- -- 62
2019-04-09 18:00:00 14.1 8 Norte 18 Sudoeste 0 -- -- 60
2019-04-09 17:00:00 15.1 7 Sur 16 Sur 0 -- -- 53
2019-04-09 16:00:00 14.1 5 Sudoeste 10 Sudoeste 0 -- -- 58
2019-04-09 15:00:00 13.1 8 Sur 16 Sur 0 -- -- 58
2019-04-09 14:00:00 11.3 6 Sudeste 13 Sur 0 -- -- 73
2019-04-09 13:00:00 10.8 6 Norte 23 Oeste 0.2 -- -- 74
2019-04-09 12:00:00 13 5 Sudoeste 19 Sudeste 0 -- -- 62
2019-04-09 11:00:00 11.8 10 Sudeste 23 Sur 0 -- -- 57
2019-04-09 10:00:00 11.4 11 Sudeste 29 Sudeste 0 -- -- 58
2019-04-09 09:00:00 10.8 11 Sudeste 32 Sur 0 -- -- 59
2019-04-09 08:00:00 10.4 13 Sudeste 31 Sudeste 0 -- -- 61
2019-04-09 07:00:00 10.8 12 Sudeste 30 Sur 0 -- -- 57
2019-04-09 06:00:00 10.7 13 Sudeste 28 Sudeste 0 -- -- 56
2019-04-09 05:00:00 11.3 17 Sudeste 40 Sudeste 0 -- -- 53
2019-04-09 04:00:00 11.3 13 Sudeste 26 Este 0 -- -- 54
2019-04-09 03:00:00 9.9 14 Sudeste 24 Este 0 -- -- 62
2019-04-09 02:00:00 6.4 2 Noroeste 8 Nordeste 0 -- -- 92
2019-04-09 01:00:00 6.3 3 Norte 5 Oeste 0 -- -- 95
2019-04-09 00:00:00 6.7 0 Calma 5 Este 0 -- -- 91
2019-04-08 23:00:00 8.8 0 Calma 8 Oeste 0 -- -- 85
2019-04-08 22:00:00 9.7 5 Oeste 13 Norte 0 -- -- 81
2019-04-08 21:00:00 11 5 Oeste 17 Noroeste 0 -- -- 74
2019-04-08 20:00:00 12.5 4 Noroeste 17 Oeste 0 -- -- 70
2019-04-08 19:00:00 13 7 Oeste 24 Oeste 0 -- -- 70
2019-04-08 18:00:00 14.6 8 Sudoeste 26 Sudoeste 0 -- -- 65
2019-04-08 17:00:00 13.8 8 Sudoeste 24 Oeste 0 -- -- 70
2019-04-08 16:00:00 12.6 10 Oeste 29 Sudoeste 0 -- -- 73
2019-04-08 15:00:00 15 10 Sudoeste 21 Sudoeste 0 -- -- 63
2019-04-08 14:00:00 14.1 5 Sudoeste 23 Oeste 0 -- -- 66
2019-04-08 13:00:00 15.3 9 Sur 17 Sudoeste 0 -- -- 60
2019-04-08 12:00:00 13.5 8 Sudoeste 15 Sudoeste 0 -- -- 66
2019-04-08 11:00:00 10.5 4 Sur 10 Sudeste 0 -- -- 78
2019-04-08 10:00:00 9.6 3 Sudeste 6 Nordeste 0 -- -- 84
2019-04-08 09:00:00 9.4 0 Calma 4 Oeste 0 -- -- 80
2019-04-08 08:00:00 9.2 0 Calma 9 Nordeste 0 -- -- 80
2019-04-08 07:00:00 9.7 2 Norte 14 Este 0 -- -- 76
2019-04-08 06:00:00 11.5 8 Noroeste 30 Sudeste 0 -- -- 64
2019-04-08 05:00:00 12.1 13 Sudeste 42 Sur 0 -- -- 60
2019-04-08 04:00:00 11.8 22 Sudeste 44 Este 0 -- -- 60
2019-04-08 03:00:00 11.5 28 Sudeste 53 Sudeste 0 -- -- 59
2019-04-08 02:00:00 11.2 27 Sudeste 49 Este 0 -- -- 60
2019-04-08 01:00:00 10.7 24 Sudeste 48 Sudeste 0 -- -- 64
2019-04-08 00:00:00 11.3 23 Sudeste 53 Este 0 -- -- 58
2019-04-07 23:00:00 11.2 29 Este 53 Sudeste 0 -- -- 58
2019-04-07 22:00:00 10.2 17 Sudeste 49 Sur 0 -- -- 63
2019-04-07 21:00:00 9.6 14 Sudeste 30 Sudeste 0.6 -- -- 74
2019-04-07 20:00:00 10.8 0 Calma 16 Oeste 0 -- -- 72
2019-04-07 19:00:00 11.7 9 Sudoeste 20 Oeste 0 -- -- 67
2019-04-07 18:00:00 12.7 9 Oeste 27 Oeste 0 -- -- 62
2019-04-07 17:00:00 15 10 Oeste 23 Oeste 0 -- -- 55
2019-04-07 16:00:00 16.5 14 Sudoeste 28 Sudoeste 0 -- -- 46
2019-04-07 15:00:00 16.9 14 Sur 24 Sudoeste 0 -- -- 37
2019-04-07 14:00:00 15.2 10 Sur 21 Sur 0 -- -- 37
2019-04-07 13:00:00 13.7 9 Sur 20 Sur 0 -- -- 43
2019-04-07 12:00:00 11.8 9 Sudeste 18 Este 0 -- -- 49
2019-04-07 11:00:00 9.8 7 Sur 15 Sudeste 0 -- -- 71
2019-04-07 10:00:00 6.6 3 Oeste 8 Sudoeste 0 -- -- 88
2019-04-07 09:00:00 5.5 0 Calma 6 Oeste 0 -- -- 90
2019-04-07 08:00:00 5.4 0 Calma 8 Norte 0 -- -- 91
2019-04-07 07:00:00 5.3 5 Oeste 16 Sur 0 -- -- 91
2019-04-07 06:00:00 5.1 3 Sudeste 11 Sur 0.2 -- -- 90
2019-04-07 05:00:00 5 2 Sudeste 12 Sur 0 -- -- 92
2019-04-07 04:00:00 5 2 Nordeste 14 Sudeste 0.2 -- -- 92
2019-04-07 03:00:00 5.1 8 Este 15 Este 0.6 -- -- 87
2019-04-07 02:00:00 5.3 4 Noroeste 19 Sudeste 0 -- -- 88
2019-04-07 01:00:00 5.2 6 Sudeste 22 Sudeste 0 -- -- 88
2019-04-07 00:00:00 5.4 4 Sudeste 17 Nordeste 1.4 -- -- 90
2019-04-06 23:00:00 5.4 2 Norte 11 Este 1.2 -- -- 95
2019-04-06 22:00:00 5.7 4 Este 12 Sur 0.8 -- -- 92
2019-04-06 21:00:00 5.7 3 Norte 16 Sudoeste 0.6 -- -- 94
2019-04-06 20:00:00 6.3 7 Sur 16 Sudoeste 0.4 -- -- 87
2019-04-06 19:00:00 6.7 8 Este 24 Sudoeste 3.2 -- -- 85
2019-04-06 18:00:00 7.8 11 Sudeste 23 Sudeste 0.2 -- -- 79
2019-04-06 17:00:00 8.5 4 Oeste 30 Oeste 0.4 -- -- 78
2019-04-06 16:00:00 10.8 8 Oeste 21 Noroeste 0 -- -- 61
2019-04-06 15:00:00 12.6 5 Sudeste 26 Sudeste 0 -- -- 44
2019-04-06 14:00:00 11.8 11 Sudeste 34 Sur 0 -- -- 48
2019-04-06 13:00:00 11.2 18 Sur 38 Sur 0 -- -- 50
2019-04-06 12:00:00 12.3 16 Sudeste 39 Sudeste 0 -- -- 48
2019-04-06 11:00:00 10.2 13 Sudeste 39 Sudeste 0 -- -- 54
2019-04-06 10:00:00 9.9 18 Sudeste 32 Sudeste 0 -- -- 54
2019-04-06 09:00:00 8 14 Este 34 Sudeste 0 -- -- 58
2019-04-06 08:00:00 7.9 14 Sudeste 31 Este 0 -- -- 58
2019-04-06 07:00:00 7.5 12 Sudeste 33 Sudeste 0 -- -- 62
2019-04-06 06:00:00 5.7 12 Sudeste 29 Sudeste 0 -- -- 71
2019-04-06 05:00:00 3.8 5 Norte 13 Nordeste 0 -- -- 92
2019-04-06 04:00:00 2.9 0 Calma 5 Sur 0 -- -- 98
2019-04-06 03:00:00 3.1 3 Noroeste 9 Noroeste 0 -- -- 96
2019-04-06 02:00:00 3.3 3 Norte 5 Norte 0 -- -- 96
2019-04-06 01:00:00 4.3 4 Norte 6 Norte 0 -- -- 95
2019-04-06 00:00:00 5.4 2 Nordeste 6 Norte 0 -- -- 95
2019-04-05 23:00:00 5.5 2 Oeste 5 Sur 0 -- -- 96
2019-04-05 22:00:00 6.1 4 Nordeste 6 Nordeste 0.4 -- -- 93
2019-04-05 21:00:00 6.8 0 Calma 10 Norte 0.4 -- -- 88
2019-04-05 20:00:00 7.9 6 Oeste 21 Noroeste 2 -- -- 81
2019-04-05 19:00:00 11 6 Oeste 17 Nordeste 0 -- -- 63
2019-04-05 18:00:00 12.6 8 Noroeste 31 Sudoeste 0 -- -- 54
2019-04-05 17:00:00 14.7 11 Sudeste 33 Sudeste 0 -- -- 31
2019-04-05 16:00:00 14.6 16 Sur 40 Sur 0 -- -- 32
2019-04-05 15:00:00 13.7 17 Sudeste 39 Sudeste 0 -- -- 34
2019-04-05 14:00:00 13.7 17 Sudeste 37 Este 0 -- -- 34
2019-04-05 13:00:00 12.6 16 Sudeste 32 Sudeste 0 -- -- 47
2019-04-05 12:00:00 10.9 5 Sur 13 Sudoeste 0 -- -- 77
2019-04-05 11:00:00 7.4 3 Sudeste 8 Sudoeste 0 -- -- 92
2019-04-05 10:00:00 6.8 2 Noroeste 10 Norte 0 -- -- 92
2019-04-05 09:00:00 6.1 5 Sudoeste 14 Sudeste 0.8 -- -- 90
2019-04-05 08:00:00 6.8 3 Norte 10 Nordeste 0.2 -- -- 87
2019-04-05 07:00:00 7.4 0 Calma 14 Sur 0 -- -- 76
2019-04-05 06:00:00 8.6 8 Sudeste 36 Sur 0 -- -- 62
2019-04-05 05:00:00 8.7 14 Sudeste 46 Sur 0 -- -- 61
2019-04-05 04:00:00 8.5 17 Sudeste 41 Sur 0 -- -- 63
2019-04-05 03:00:00 8.1 23 Sur 44 Sudeste 0 -- -- 68
2019-04-05 02:00:00 9 23 Sur 48 Sur 0 -- -- 62
2019-04-05 01:00:00 9.4 15 Sudeste 38 Sur 0 -- -- 58
2019-04-05 00:00:00 9.2 10 Sudeste 42 Este 0 -- -- 60
2019-04-04 23:00:00 9.3 18 Sudeste 40 Sur 0 -- -- 58
2019-04-04 22:00:00 9.3 21 Sur 44 Sudeste 0 -- -- 60
2019-04-04 21:00:00 9.3 19 Sudeste 51 Sur 0 -- -- 60
2019-04-04 20:00:00 9.9 19 Sudeste 45 Sur 0 -- -- 55
2019-04-04 19:00:00 10.5 14 Sudeste 40 Sur 0 -- -- 50
2019-04-04 18:00:00 11.2 18 Sudeste 44 Sudeste 0 -- -- 45
2019-04-04 17:00:00 11.7 9 Sudeste 34 Sur 0 -- -- 46
2019-04-04 16:00:00 12 14 Sudeste 39 Sudeste 0 -- -- 44
2019-04-04 15:00:00 11.5 15 Sudeste 38 Sur 0 -- -- 44
2019-04-04 14:00:00 12 17 Sudeste 45 Sudeste 0 -- -- 43
2019-04-04 13:00:00 10.8 17 Sudeste 36 Este 0 -- -- 50
2019-04-04 12:00:00 9.5 16 Sudeste 26 Sudeste 0 -- -- 53
2019-04-04 11:00:00 7.9 12 Sudeste 23 Sudeste 0 -- -- 63
2019-04-04 10:00:00 4.8 8 Sudeste 18 Sur 0 -- -- 77
2019-04-04 09:00:00 2.9 6 Sur 14 Sur 0 -- -- 90
2019-04-04 08:00:00 2.5 3 Sudeste 16 Sudeste 0 -- -- 88
2019-04-04 07:00:00 3.3 4 Este 14 Este 0 -- -- 87
2019-04-04 06:00:00 3.1 5 Sur 13 Sudoeste 0 -- -- 93
2019-04-04 05:00:00 2.5 2 Noroeste 12 Norte 0 -- -- 95
2019-04-04 04:00:00 2.2 2 Noroeste 11 Sudeste 0 -- -- 96
2019-04-04 03:00:00 2 3 Sudeste 13 Sur 1 -- -- 97
2019-04-04 02:00:00 2.4 4 Nordeste 9 Nordeste 1 -- -- 95
2019-04-04 01:00:00 2.1 5 Oeste 16 Noroeste 0 -- -- 97
2019-04-04 00:00:00 1.7 6 Norte 14 Nordeste 0.8 -- -- 98
2019-04-03 23:00:00 2.3 5 Oeste 18 Este 2.6 -- -- 94
2019-04-03 22:00:00 2.9 4 Nordeste 26 Oeste 0.8 -- -- 93
2019-04-03 21:00:00 3.1 8 Oeste 21 Oeste 0.8 -- -- 93
2019-04-03 20:00:00 3.1 6 Sudeste 15 Norte 2.8 -- -- 94
2019-04-03 19:00:00 4.1 4 Nordeste 13 Norte 1.2 -- -- 87
2019-04-03 18:00:00 4.5 4 Sudeste 9 Sudeste 0.8 -- -- 92
2019-04-03 17:00:00 4.4 3 Sur 20 Oeste 2.2 -- -- 90
2019-04-03 16:00:00 5.9 4 Sur 21 Sudeste 0.6 -- -- 90
2019-04-03 15:00:00 5.5 5 Nordeste 22 Noroeste 1.2 -- -- 93
2019-04-03 14:00:00 4.2 5 Este 19 Sudoeste 4 -- -- 94
2019-04-03 13:00:00 6.6 5 Norte 13 Sudoeste 0 -- -- 74
2019-04-03 12:00:00 5.4 7 Noroeste 19 Oeste 1 -- -- 82
2019-04-03 11:00:00 5.1 0 Calma 10 Oeste 1.2 -- -- 86
2019-04-03 10:00:00 5.4 7 Noroeste 14 Norte 0.6 -- -- 86
2019-04-03 09:00:00 5.3 8 Norte 18 Noroeste 0.2 -- -- 83
2019-04-03 08:00:00 5.1 4 Nordeste 14 Oeste 0.6 -- -- 88
2019-04-03 07:00:00 5.5 2 Sudoeste 7 Noroeste 0.4 -- -- 91
2019-04-03 06:00:00 5.8 4 Norte 8 Nordeste 0 -- -- 90
2019-04-03 05:00:00 5.9 2 Norte 9 Nordeste 0.2 -- -- 93
2019-04-03 04:00:00 6.1 5 Nordeste 10 Norte 0 -- -- 86
2019-04-03 03:00:00 6.4 4 Norte 10 Nordeste 0.4 -- -- 81
2019-04-03 02:00:00 6.9 5 Nordeste 11 Norte 0 -- -- 85
2019-04-03 01:00:00 7.3 3 Norte 8 Norte 0 -- -- 87
2019-04-03 00:00:00 7.3 2 Norte 7 Norte 0.2 -- -- 93
2019-04-02 23:00:00 7.4 2 Sudoeste 8 Norte 0.4 -- -- 95
2019-04-02 22:00:00 8 4 Norte 9 Nordeste 0 -- -- 90
2019-04-02 21:00:00 8.1 0 Calma 13 Noroeste 0 -- -- 91
2019-04-02 20:00:00 8.6 4 Noroeste 15 Noroeste 0.2 -- -- 90
2019-04-02 19:00:00 9.9 3 Norte 15 Noroeste 0 -- -- 83
2019-04-02 18:00:00 10.8 5 Oeste 25 Oeste 0 -- -- 76
2019-04-02 17:00:00 12.3 7 Noroeste 18 Oeste 0 -- -- 71
2019-04-02 16:00:00 13.8 3 Oeste 21 Oeste 0 -- -- 63
2019-04-02 15:00:00 13.2 6 Noroeste 21 Sudoeste 0 -- -- 64
2019-04-02 14:00:00 14.3 9 Oeste 19 Oeste 0 -- -- 68
2019-04-02 13:00:00 15 10 Sudoeste 18 Sudoeste 0 -- -- 67
2019-04-02 12:00:00 11.8 4 Sudoeste 8 Sur 0 -- -- 73
2019-04-02 11:00:00 9.2 0 Calma 4 Sur 0 -- -- 77
2019-04-02 10:00:00 7.8 0 Calma 5 Oeste 0 -- -- 81
2019-04-02 09:00:00 6.6 0 Calma 5 Este 0 -- -- 85
2019-04-02 08:00:00 4.5 0 Calma 7 Noroeste 0 -- -- 89
2019-04-02 07:00:00 5.3 2 Noroeste 5 Oeste 0 -- -- 86
2019-04-02 06:00:00 5.4 0 Calma 5 Norte 0 -- -- 87
2019-04-02 05:00:00 5.8 0 Calma 4 Oeste 0 -- -- 85
2019-04-02 04:00:00 6.1 0 Calma 5 Sudeste 0 -- -- 86
2019-04-02 03:00:00 6.6 0 Calma 5 Sudeste 0 -- -- 84
2019-04-02 02:00:00 7.5 0 Calma 4 Oeste 0 -- -- 81
2019-04-02 01:00:00 7.7 0 Calma 5 Noroeste 0 -- -- 82
2019-04-02 00:00:00 8 0 Calma 5 Sudoeste 0 -- -- 81
2019-04-01 23:00:00 9 0 Calma 5 Este 0 -- -- 78
2019-04-01 22:00:00 10.1 0 Calma 5 Norte 0 -- -- 73
2019-04-01 21:00:00 12.5 3 Norte 12 Oeste 0 -- -- 65
2019-04-01 20:00:00 15.4 9 Oeste 18 Oeste 0 -- -- 56
2019-04-01 19:00:00 15.9 7 Noroeste 25 Noroeste 0 -- -- 49
2019-04-01 18:00:00 17.6 7 Norte 26 Norte 0 -- -- 47
2019-04-01 17:00:00 18.2 10 Oeste 27 Noroeste 0 -- -- 40
2019-04-01 16:00:00 18.1 10 Noroeste 32 Oeste 0 -- -- 40
2019-04-01 15:00:00 19.6 15 Sudoeste 30 Oeste 0 -- -- 43
2019-04-01 14:00:00 17.8 12 Sudoeste 24 Oeste 0 -- -- 47
2019-04-01 13:00:00 16.7 9 Oeste 22 Oeste 0 -- -- 47
2019-04-01 12:00:00 14.2 5 Sudoeste 14 Sudoeste 0 -- -- 54
2019-04-01 11:00:00 12.1 3 Sur 6 Sur 0 -- -- 59
2019-04-01 10:00:00 8.4 0 Calma 6 Sur 0 -- -- 71
2019-04-01 09:00:00 5.5 2 Este 5 Este 0 -- -- 80
2019-04-01 08:00:00 5.1 0 Calma 5 Este 0 -- -- 82
2019-04-01 07:00:00 4.8 0 Calma 4 Este 0 -- -- 84
2019-04-01 06:00:00 5.3 0 Calma 4 Oeste 0 -- -- 85
2019-04-01 05:00:00 5.7 0 Calma 5 Norte 0 -- -- 84
2019-04-01 04:00:00 6.3 2 Noroeste 5 Sudoeste 0 -- -- 84
2019-04-01 03:00:00 6.3 0 Calma 5 Sur 0 -- -- 86
2019-04-01 02:00:00 6.7 2 Noroeste 4 Noroeste 0 -- -- 85
2019-04-01 01:00:00 7.7 2 Oeste 6 Sudoeste 0 -- -- 82
2019-04-01 00:00:00 8 0 Calma 4 Sudoeste 0 -- -- 79
2019-03-31 23:00:00 9.3 0 Calma 4 Sur 0 -- -- 75
2019-03-31 22:00:00 10.8 0 Calma 7 Sudoeste 0 -- -- 67
2019-03-31 21:00:00 13.3 3 Este 9 Norte 0 -- -- 59
2019-03-31 20:00:00 15.4 5 Norte 11 Norte 0 -- -- 52
2019-03-31 19:00:00 16.2 5 Oeste 17 Sudoeste 0 -- -- 52
2019-03-31 18:00:00 17 4 Sudoeste 20 Oeste 0 -- -- 49
2019-03-31 17:00:00 17.8 12 Oeste 24 Oeste 0 -- -- 46
2019-03-31 16:00:00 20.7 15 Sudoeste 30 Oeste 0 -- -- 40
2019-03-31 15:00:00 21 11 Oeste 32 Oeste 0 -- -- 39
2019-03-31 14:00:00 20.3 15 Oeste 29 Oeste 0 -- -- 43
2019-03-31 13:00:00 19.6 12 Sudoeste 21 Oeste 0 -- -- 46
2019-03-31 12:00:00 16.1 5 Oeste 10 Oeste 0 -- -- 51
2019-03-31 11:00:00 14.2 4 Sur 6 Sur 0 -- -- 54
2019-03-31 10:00:00 9.9 2 Sudoeste 7 Sudeste 0 -- -- 68
2019-03-31 09:00:00 7.4 0 Calma 5 Norte 0 -- -- 79
2019-03-31 08:00:00 7.2 0 Calma 5 Noroeste 0 -- -- 79
2019-03-31 07:00:00 7.4 0 Calma 3 Nordeste 0 -- -- 80
2019-03-31 06:00:00 7.9 0 Calma 5 Nordeste 0 -- -- 81
2019-03-31 05:00:00 8.3 0 Calma 4 Nordeste 0 -- -- 83
2019-03-31 03:00:00 9.9 0 Calma 3 Nordeste 0 -- -- 83
2019-03-31 01:00:00 10.5 0 Calma 4 Nordeste 0 -- -- 82
2019-03-31 00:00:00 10.8 0 Calma 4 Norte 0 -- -- 82
2019-03-30 23:00:00 10.8 2 Nordeste 4 Nordeste 0 -- -- 82
2019-03-30 22:00:00 11.8 3 Norte 5 Norte 0 -- -- 78
2019-03-30 21:00:00 11.9 3 Nordeste 4 Nordeste 0 -- -- 75
2019-03-30 20:00:00 12.9 0 Calma 8 Oeste 0 -- -- 70
2019-03-30 19:00:00 15.1 2 Noroeste 14 Norte 0 -- -- 58
2019-03-30 18:00:00 16 6 Norte 16 Norte 0 -- -- 55
2019-03-30 17:00:00 18 6 Oeste 18 Oeste 0 -- -- 48
2019-03-30 16:00:00 18.8 6 Oeste 21 Oeste 0 -- -- 48
2019-03-30 15:00:00 18.7 7 Oeste 16 Oeste 0 -- -- 46
2019-03-30 14:00:00 17.9 6 Oeste 22 Oeste 0 -- -- 46
2019-03-30 13:00:00 17.9 8 Oeste 22 Sudoeste 0 -- -- 45
2019-03-30 12:00:00 18.4 6 Sudoeste 11 Sudoeste 0 -- -- 52
2019-03-30 11:00:00 16.3 4 Sur 8 Sudoeste 0 -- -- 62
2019-03-30 10:00:00 12.9 0 Calma 5 Oeste 0 -- -- 69
2019-03-30 09:00:00 11.3 2 Sudoeste 12 Sudeste 0 -- -- 65
2019-03-30 08:00:00 8.5 4 Sudoeste 14 Sudeste 0 -- -- 75
2019-03-30 07:00:00 7.9 5 Nordeste 21 Este 0 -- -- 78
2019-03-30 06:00:00 6.4 0 Calma 6 Nordeste 0 -- -- 92
2019-03-30 05:00:00 6.6 2 Sudeste 6 Noroeste 0 -- -- 88
2019-03-30 04:00:00 7.1 0 Calma 5 Oeste 0 -- -- 85
2019-03-30 03:00:00 7 0 Calma 5 Norte 0 -- -- 89
2019-03-30 02:00:00 6.7 0 Calma 4 Nordeste 0 -- -- 91
2019-03-30 01:00:00 7.7 0 Calma 3 Nordeste 0 -- -- 87
2019-03-30 00:00:00 9.2 0 Calma 3 Nordeste 0 -- -- 87
2019-03-29 23:00:00 8.7 0 Calma 4 Nordeste 0 -- -- 91
2019-03-29 22:00:00 9.5 0 Calma 4 Nordeste 0 -- -- 90
2019-03-29 21:00:00 10 0 Calma 4 Este 0 -- -- 88
2019-03-29 20:00:00 10.8 0 Calma 4 Sudoeste 0 -- -- 81
2019-03-29 19:00:00 14.7 4 Sudoeste 19 Oeste 0 -- -- 69
2019-03-29 18:00:00 16.9 12 Oeste 21 Oeste 0 -- -- 62
2019-03-29 17:00:00 18.7 10 Sur 27 Oeste 0 -- -- 57
2019-03-29 16:00:00 18.9 11 Oeste 26 Oeste 0 -- -- 55
2019-03-29 15:00:00 19.1 10 Oeste 28 Oeste 0 -- -- 52
2019-03-29 14:00:00 18.3 14 Sudoeste 24 Sudoeste 0 -- -- 54
2019-03-29 13:00:00 17.5 13 Sudoeste 24 Sudoeste 0 -- -- 55
2019-03-29 12:00:00 15.1 10 Sur 20 Sur 0 -- -- 60
2019-03-29 11:00:00 11.5 6 Oeste 10 Sudoeste 0 -- -- 71
2019-03-29 10:00:00 9.6 4 Sudoeste 6 Sur 0 -- -- 78
2019-03-29 09:00:00 5.6 0 Calma 3 Nordeste 0 -- -- 100
2019-03-29 08:00:00 3.8 0 Calma 3 Nordeste 0 -- -- 99
2019-03-29 07:00:00 3.9 0 Calma 4 Nordeste 0 -- -- 97
2019-03-29 06:00:00 4.3 0 Calma 3 Nordeste 0 -- -- 95
2019-03-29 05:00:00 6.2 0 Calma 4 Este 0 -- -- 92
2019-03-29 04:00:00 7.3 0 Calma 4 Este 0 -- -- 92
2019-03-29 03:00:00 7.3 0 Calma 4 Oeste 0 -- -- 93
2019-03-29 02:00:00 7.2 0 Calma 3 Nordeste 0 -- -- 95
2019-03-29 01:00:00 6.7 0 Calma 2 Nordeste 0 -- -- 100
2019-03-29 00:00:00 5.5 0 Calma 3 Nordeste 0 -- -- 97
2019-03-28 23:00:00 6 0 Calma 3 Nordeste 0 -- -- 96
2019-03-28 22:00:00 6.7 0 Calma 3 Nordeste 0 -- -- 94
2019-03-28 21:00:00 8 0 Calma 7 Este 0 -- -- 89
2019-03-28 20:00:00 9.6 0 Calma 18 Oeste 0 -- -- 82
2019-03-28 19:00:00 12.9 8 Oeste 19 Oeste 0 -- -- 71
2019-03-28 18:00:00 14.5 8 Noroeste 22 Noroeste 0 -- -- 66
2019-03-28 17:00:00 16.9 10 Sudoeste 25 Oeste 0 -- -- 58
2019-03-28 16:00:00 16.4 7 Noroeste 32 Noroeste 0 -- -- 55
2019-03-28 15:00:00 17.2 13 Oeste 31 Oeste 0 -- -- 55
2019-03-28 14:00:00 16.8 10 Oeste 26 Oeste 0 -- -- 52
2019-03-28 13:00:00 15.9 12 Sudoeste 27 Sudoeste 0 -- -- 55
2019-03-28 12:00:00 14.5 9 Oeste 23 Oeste 0 -- -- 57
2019-03-28 11:00:00 12.1 6 Sudoeste 11 Oeste 0 -- -- 62
2019-03-28 10:00:00 8.9 3 Sudeste 6 Sur 0 -- -- 76
2019-03-28 09:00:00 4.6 0 Calma 4 Oeste 0 -- -- 98
2019-03-28 08:00:00 2.9 0 Calma 2 Nordeste 0 -- -- 99
2019-03-28 07:00:00 2.9 0 Calma 3 Nordeste 0 -- -- 97
2019-03-28 06:00:00 3.3 2 Norte 3 Norte 0 -- -- 98
2019-03-28 05:00:00 3.7 0 Calma 6 Norte 0 -- -- 96
2019-03-28 04:00:00 4.4 0 Calma 3 Oeste 0 -- -- 95
2019-03-28 03:00:00 5.4 0 Calma 4 Oeste 0 -- -- 93
2019-03-28 02:00:00 6.7 0 Calma 2 Sudoeste 0 -- -- 90
2019-03-28 01:00:00 6.8 0 Calma 2 Sudoeste 0 -- -- 90
2019-03-28 00:00:00 6.7 0 Calma 5 Noroeste 0 -- -- 89
2019-03-27 23:00:00 6.5 0 Calma 2 Nordeste 0 -- -- 92
2019-03-27 22:00:00 5.7 0 Calma 6 Este 0 -- -- 92
2019-03-27 21:00:00 6.5 3 Este 6 Este 0 -- -- 88
2019-03-27 20:00:00 8.3 2 Nordeste 11 Oeste 0 -- -- 80
2019-03-27 19:00:00 11.3 8 Noroeste 22 Oeste 0 -- -- 70
2019-03-27 18:00:00 13.6 8 Noroeste 27 Oeste 0 -- -- 61
2019-03-27 17:00:00 15 8 Oeste 22 Noroeste 0 -- -- 58
2019-03-27 16:00:00 15.2 10 Noroeste 21 Oeste 0 -- -- 57
2019-03-27 15:00:00 16.4 10 Oeste 26 Oeste 0 -- -- 54
2019-03-27 14:00:00 16.6 14 Sudoeste 31 Oeste 0 -- -- 51
2019-03-27 13:00:00 15.9 14 Sudoeste 27 Sudoeste 0 -- -- 49
2019-03-27 12:00:00 14.1 9 Sudoeste 17 Oeste 0 -- -- 52
2019-03-27 11:00:00 11.7 6 Sudoeste 10 Sur 0 -- -- 58
2019-03-27 10:00:00 8.4 4 Sur 6 Sur 0 -- -- 67
2019-03-27 09:00:00 4.1 2 Noroeste 4 Sur 0 -- -- 84
2019-03-27 08:00:00 2.1 0 Calma 5 Noroeste 0 -- -- 91
2019-03-27 07:00:00 2.3 0 Calma 5 Noroeste 0 -- -- 92
2019-03-27 06:00:00 1.8 0 Calma 4 Sur 0 -- -- 95
2019-03-27 05:00:00 2.1 2 Norte 4 Noroeste 0 -- -- 94
2019-03-27 04:00:00 2.3 0 Calma 5 Oeste 0 -- -- 94
2019-03-27 03:00:00 2.2 0 Calma 3 Nordeste 0 -- -- 95
2019-03-27 02:00:00 2.9 0 Calma 6 Norte 0 -- -- 93
2019-03-27 01:00:00 3.1 0 Calma 3 Nordeste 0 -- -- 92
2019-03-27 00:00:00 3.3 0 Calma 4 Nordeste 0 -- -- 91